Time;durP1;ratioP1;P1;durP2;ratioP2;P2;SDS_P1;SDS_P2;PMS_P1;PMS_P2;Temp;Humidity;BMP_temperature;BMP_pressure;BME280_temperature;BME280_humidity;BME280_pressure;Samples;Min_cycle;Max_cycle;Signal;HPM_P1;HPM_P2
2024/01/14 00:01:56;;;;;;;11.40;4.93;;;;;;;-141.50;100.00;63355.56;5042393;28;20045;-77
2024/01/14 00:04:24;;;;;;;12.38;5.03;;;;;;;-141.50;100.00;63355.56;5027862;28;20037;-76
2024/01/14 00:06:51;;;;;;;10.55;5.38;;;;;;;-141.50;100.00;63355.56;5036593;28;20056;-75
2024/01/14 00:09:19;;;;;;;8.80;4.75;;;;;;;-141.50;100.00;63355.56;5028298;28;20047;-76
2024/01/14 00:11:48;;;;;;;10.90;4.72;;;;;;;-141.50;100.00;63355.56;5036888;28;20057;-75
2024/01/14 00:14:15;;;;;;;10.18;4.90;;;;;;;-141.50;100.00;63355.56;5041143;28;20052;-77
2024/01/14 00:16:46;;;;;;;14.75;5.78;;;;;;;-141.50;100.00;63355.56;5037742;28;20060;-75
2024/01/14 00:19:13;;;;;;;11.90;4.97;;;;;;;-141.50;100.00;63355.56;5062987;28;20116;-77
2024/01/14 00:21:40;;;;;;;10.38;4.35;;;;;;;-141.50;100.00;63355.56;5047657;28;20403;-77
2024/01/14 00:24:13;;;;;;;9.27;4.47;;;;;;;-141.50;100.00;63355.56;5045143;28;20086;-77
2024/01/14 00:26:40;;;;;;;9.38;4.80;;;;;;;-141.50;100.00;63355.56;5047105;28;20041;-76
2024/01/14 00:29:07;;;;;;;12.27;5.40;;;;;;;-141.50;100.00;63355.56;5027743;28;20119;-77
2024/01/14 00:31:35;;;;;;;12.60;5.70;;;;;;;-141.50;100.00;63355.56;5021805;28;20041;-77
2024/01/14 00:34:02;;;;;;;9.43;4.82;;;;;;;-141.50;100.00;63355.56;5017776;28;20057;-77
2024/01/14 00:36:29;;;;;;;12.32;5.60;;;;;;;-141.50;100.00;63355.56;5002799;28;20049;-77
2024/01/14 00:38:57;;;;;;;10.45;5.25;;;;;;;-141.50;100.00;63355.56;4995239;28;20069;-77
2024/01/14 00:41:24;;;;;;;10.10;4.90;;;;;;;-141.50;100.00;63355.56;5005956;28;20137;-74
2024/01/14 00:43:50;;;;;;;11.70;5.00;;;;;;;-141.50;100.00;63355.56;5018987;28;20044;-77
2024/01/14 00:46:18;;;;;;;11.10;5.80;;;;;;;-141.50;100.00;63355.56;5012739;28;20120;-77
2024/01/14 00:48:45;;;;;;;11.07;5.00;;;;;;;-141.50;100.00;63355.56;5006250;28;20491;-77
2024/01/14 00:51:15;;;;;;;10.43;4.75;;;;;;;-141.50;100.00;63355.56;5009575;28;20069;-77
2024/01/14 00:53:45;;;;;;;9.02;5.00;;;;;;;-141.50;100.00;63355.56;5010075;28;20520;-76
2024/01/14 00:56:12;;;;;;;10.73;4.53;;;;;;;-141.50;100.00;63355.56;5001720;28;20426;-76
2024/01/14 00:58:39;;;;;;;8.63;4.72;;;;;;;-141.50;100.00;63355.56;5018918;28;20048;-78
2024/01/14 01:01:07;;;;;;;9.80;5.22;;;;;;;-141.50;100.00;63355.56;4989500;28;20064;-77
2024/01/14 01:03:35;;;;;;;8.00;4.55;;;;;;;-141.50;100.00;63355.56;5038280;28;20049;-76
2024/01/14 01:06:02;;;;;;;10.98;4.97;;;;;;;-141.50;100.00;63355.56;5011487;28;20042;-75
2024/01/14 01:08:30;;;;;;;13.20;6.00;;;;;;;-141.50;100.00;63355.56;5028906;28;20088;-77
2024/01/14 01:11:00;;;;;;;13.70;6.10;;;;;;;-141.50;100.00;63355.56;5009134;28;20050;-77
2024/01/14 01:13:28;;;;;;;14.98;6.28;;;;;;;-141.50;100.00;63355.56;5022573;28;20072;-77
2024/01/14 01:15:56;;;;;;;11.25;5.63;;;;;;;-141.50;100.00;63355.56;5014013;28;20053;-77
2024/01/14 01:18:24;;;;;;;14.25;5.75;;;;;;;-141.50;100.00;63355.56;5029456;28;20061;-77
2024/01/14 01:20:51;;;;;;;12.07;6.03;;;;;;;-141.50;100.00;63355.56;5009552;28;20119;-76
2024/01/14 01:23:21;;;;;;;15.25;5.68;;;;;;;-141.50;100.00;63355.56;5004699;28;20053;-77
2024/01/14 01:25:57;;;;;;;14.57;6.07;;;;;;;-141.50;100.00;63355.56;5010482;28;20407;-76
2024/01/14 01:28:26;;;;;;;12.70;5.97;;;;;;;-141.50;100.00;63355.56;4993096;28;20041;-77
2024/01/14 01:30:54;;;;;;;14.60;6.57;;;;;;;-141.50;100.00;63355.56;5000673;28;20109;-78
2024/01/14 01:33:22;;;;;;;16.42;6.50;;;;;;;-141.50;100.00;63355.56;4995621;28;20046;-77
2024/01/14 01:35:49;;;;;;;14.18;6.50;;;;;;;-141.50;100.00;63355.56;5020779;28;20045;-77
2024/01/14 01:38:16;;;;;;;11.63;5.72;;;;;;;-141.50;100.00;63355.56;5010432;28;20496;-77
2024/01/14 01:40:44;;;;;;;16.42;6.88;;;;;;;-141.50;100.00;63355.56;4998715;28;20712;-78
2024/01/14 01:43:11;;;;;;;12.18;5.95;;;;;;;-141.50;100.00;63355.56;5033641;28;20506;-78
2024/01/14 01:45:39;;;;;;;12.20;5.35;;;;;;;-141.50;100.00;63355.56;5011901;28;20057;-78
2024/01/14 01:48:06;;;;;;;17.13;7.15;;;;;;;-141.50;100.00;63355.56;5016869;28;20576;-78
2024/01/14 01:50:35;;;;;;;14.20;6.30;;;;;;;-141.50;100.00;63355.56;5029816;28;20041;-78
2024/01/14 01:53:03;;;;;;;12.93;6.20;;;;;;;-141.50;100.00;63355.56;5027244;28;20508;-78
2024/01/14 01:55:30;;;;;;;12.65;5.68;;;;;;;-141.50;100.00;63355.56;5027056;28;20046;-78
2024/01/14 01:57:58;;;;;;;13.57;6.88;;;;;;;-141.50;100.00;63355.56;5018337;28;20049;-77
2024/01/14 02:00:25;;;;;;;13.57;6.22;;;;;;;-141.50;100.00;63355.56;5002302;28;20461;-79
2024/01/14 02:02:53;;;;;;;13.35;6.47;;;;;;;-141.50;100.00;63355.56;5023158;28;20113;-77
2024/01/14 02:05:20;;;;;;;13.85;6.40;;;;;;;-141.50;100.00;63355.56;5022429;28;20045;-77
2024/01/14 02:07:48;;;;;;;15.60;7.35;;;;;;;-141.50;100.00;63355.56;5017411;28;20567;-78
2024/01/14 02:10:16;;;;;;;15.70;7.53;;;;;;;-141.50;100.00;63355.56;4997408;28;20038;-77
2024/01/14 02:12:42;;;;;;;16.92;7.40;;;;;;;-141.50;100.00;63355.56;5022071;28;20176;-78
2024/01/14 02:15:14;;;;;;;15.52;6.80;;;;;;;-141.50;100.00;63355.56;5011332;28;20528;-77
2024/01/14 02:17:41;;;;;;;16.83;6.55;;;;;;;-141.50;100.00;63355.56;5022628;28;20048;-77
2024/01/14 02:20:09;;;;;;;14.30;7.03;;;;;;;-141.50;100.00;63355.56;4979631;28;20046;-77
2024/01/14 02:22:40;;;;;;;14.63;6.82;;;;;;;-141.50;100.00;63355.56;5017023;28;20053;-78
2024/01/14 02:25:07;;;;;;;15.13;6.55;;;;;;;-141.50;100.00;63355.56;5014186;28;20046;-76
2024/01/14 02:27:35;;;;;;;17.58;6.88;;;;;;;-141.50;100.00;63355.56;5019960;28;20599;-76
2024/01/14 02:30:03;;;;;;;14.82;6.57;;;;;;;-141.50;100.00;63355.56;5004958;28;20054;-77
2024/01/14 02:32:30;;;;;;;12.48;6.65;;;;;;;-141.50;100.00;63355.56;5042499;28;20099;-77
2024/01/14 02:34:59;;;;;;;15.40;7.03;;;;;;;-141.50;100.00;63355.56;5016338;28;20038;-77
2024/01/14 02:37:26;;;;;;;17.35;7.15;;;;;;;-141.50;100.00;63355.56;5024537;28;20048;-77
2024/01/14 02:39:54;;;;;;;14.80;6.75;;;;;;;-141.50;100.00;63355.56;5044832;28;20054;-77
2024/01/14 02:42:22;;;;;;;13.10;6.93;;;;;;;-141.50;100.00;63355.56;5026994;28;20041;-77
2024/01/14 02:44:49;;;;;;;16.23;6.72;;;;;;;-141.50;100.00;63355.56;5043749;28;20045;-76
2024/01/14 02:47:19;;;;;;;15.30;6.80;;;;;;;-141.50;100.00;63355.56;5054447;28;20045;-77
2024/01/14 02:49:47;;;;;;;17.40;7.78;;;;;;;-141.50;100.00;63355.56;5037375;28;20037;-76
2024/01/14 02:52:15;;;;;;;14.65;6.40;;;;;;;-141.50;100.00;63355.56;5035827;28;20042;-77
2024/01/14 02:54:42;;;;;;;15.38;6.88;;;;;;;-141.50;100.00;63355.56;5027925;28;20041;-77
2024/01/14 02:57:11;;;;;;;15.75;7.18;;;;;;;-141.50;100.00;63355.56;5044471;28;20053;-76
2024/01/14 02:59:39;;;;;;;17.75;7.03;;;;;;;-141.50;100.00;63355.56;5042840;28;20045;-78
2024/01/14 03:02:06;;;;;;;17.02;7.22;;;;;;;-141.50;100.00;63355.56;5015797;28;20056;-77
2024/01/14 03:04:34;;;;;;;17.02;6.60;;;;;;;-141.50;100.00;63355.56;5032069;28;20415;-77
2024/01/14 03:07:03;;;;;;;14.40;7.13;;;;;;;-141.50;100.00;63355.56;5039701;28;20049;-78
2024/01/14 03:09:30;;;;;;;16.90;7.75;;;;;;;-141.50;100.00;63355.56;5033371;28;20049;-77
2024/01/14 03:11:57;;;;;;;15.55;6.78;;;;;;;-141.50;100.00;63355.56;5040872;28;20037;-76
2024/01/14 03:14:24;;;;;;;14.15;6.75;;;;;;;-141.50;100.00;63355.56;5016753;28;20161;-77
2024/01/14 03:16:51;;;;;;;17.10;7.47;;;;;;;-141.50;100.00;63355.56;5031179;28;20459;-77
2024/01/14 03:19:18;;;;;;;17.25;7.25;;;;;;;-141.50;100.00;63355.56;5025451;28;20053;-77
2024/01/14 03:21:48;;;;;;;17.23;7.18;;;;;;;-141.50;100.00;63355.56;5041582;28;20045;-76
2024/01/14 03:24:15;;;;;;;17.55;7.35;;;;;;;-141.50;100.00;63355.56;5045099;28;20583;-76
2024/01/14 03:26:41;;;;;;;16.17;7.10;;;;;;;-141.50;100.00;63355.56;5040878;28;20041;-78
2024/01/14 03:29:09;;;;;;;16.92;7.10;;;;;;;-141.50;100.00;63355.56;5045018;28;20104;-77
2024/01/14 03:31:36;;;;;;;17.40;7.63;;;;;;;-141.50;100.00;63355.56;5040070;28;20037;-77
2024/01/14 03:34:03;;;;;;;21.58;7.90;;;;;;;-141.50;100.00;63355.56;5041690;28;20053;-78
2024/01/14 03:36:33;;;;;;;19.88;8.75;;;;;;;-141.50;100.00;63355.56;5039538;28;20041;-77
2024/01/14 03:39:00;;;;;;;20.05;7.55;;;;;;;-141.50;100.00;63355.56;5050436;28;20068;-77
2024/01/14 03:41:27;;;;;;;18.08;7.85;;;;;;;-141.50;100.00;63355.56;5049235;28;20063;-77
2024/01/14 03:43:55;;;;;;;19.50;8.18;;;;;;;-141.50;100.00;63355.56;5049861;28;20049;-78
2024/01/14 03:46:23;;;;;;;20.08;8.00;;;;;;;-141.50;100.00;63355.56;5045649;28;20132;-76
2024/01/14 03:48:54;;;;;;;19.13;8.38;;;;;;;-141.50;100.00;63355.56;5047012;28;20052;-78
2024/01/14 03:51:22;;;;;;;20.17;7.97;;;;;;;-141.50;100.00;63355.56;5046699;28;20053;-78
2024/01/14 03:53:49;;;;;;;22.23;9.02;;;;;;;-141.50;100.00;63355.56;5053062;28;20048;-78
2024/01/14 03:56:19;;;;;;;19.70;8.70;;;;;;;-141.50;100.00;63355.56;5064324;28;20049;-78
2024/01/14 03:58:46;;;;;;;19.23;8.65;;;;;;;-141.50;100.00;63355.56;5050801;28;20463;-77
2024/01/14 04:01:19;;;;;;;19.35;8.35;;;;;;;-141.50;100.00;63355.56;5045667;28;20064;-76
2024/01/14 04:03:48;;;;;;;16.95;7.45;;;;;;;-141.50;100.00;63355.56;5041933;28;20041;-77
2024/01/14 04:06:19;;;;;;;23.63;9.23;;;;;;;-141.50;100.00;63355.56;5048792;28;20091;-78
2024/01/14 04:08:45;;;;;;;17.25;7.20;;;;;;;-141.50;100.00;63355.56;5041125;28;20060;-78
2024/01/14 04:11:13;;;;;;;19.08;8.63;;;;;;;-141.50;100.00;63355.56;5026974;28;20037;-77
2024/01/14 04:13:40;;;;;;;19.48;8.13;;;;;;;-141.50;100.00;63355.56;5048510;28;20110;-78
2024/01/14 04:16:09;;;;;;;21.45;8.70;;;;;;;-141.50;100.00;63355.56;5044835;28;20518;-78
2024/01/14 04:18:37;;;;;;;19.42;7.97;;;;;;;-141.50;100.00;63355.56;5044974;28;20049;-77
2024/01/14 04:21:04;;;;;;;19.27;8.43;;;;;;;-141.50;100.00;63355.56;5066613;28;20041;-76
2024/01/14 04:23:32;;;;;;;19.35;8.50;;;;;;;-141.50;100.00;63355.56;5040015;28;20539;-77
2024/01/14 04:26:05;;;;;;;20.38;7.93;;;;;;;-141.50;100.00;63355.56;5024291;28;20068;-76
2024/01/14 04:28:31;;;;;;;17.58;7.72;;;;;;;-141.50;100.00;63355.56;5034255;28;20571;-77
2024/01/14 04:31:00;;;;;;;19.92;8.13;;;;;;;-141.50;100.00;63355.56;5022406;28;20636;-77
2024/01/14 04:33:30;;;;;;;15.45;7.05;;;;;;;-141.50;100.00;63355.56;5019401;28;20052;-77
2024/01/14 04:35:59;;;;;;;24.23;8.15;;;;;;;-141.50;100.00;63355.56;5044020;28;20119;-77
2024/01/14 04:38:27;;;;;;;19.58;8.18;;;;;;;-141.50;100.00;63355.56;5031077;28;20037;-78
2024/01/14 04:40:54;;;;;;;20.27;8.52;;;;;;;-141.50;100.00;63355.56;5027956;28;20503;-78
2024/01/14 04:43:21;;;;;;;16.60;7.32;;;;;;;-141.50;100.00;63355.56;5047092;28;20044;-79
2024/01/14 04:45:49;;;;;;;19.90;8.90;;;;;;;-141.50;100.00;63355.56;5027321;28;20151;-78
2024/01/14 04:48:16;;;;;;;20.80;8.30;;;;;;;-141.50;100.00;63355.56;5047342;28;20045;-79
2024/01/14 04:50:43;;;;;;;19.45;8.07;;;;;;;-141.50;100.00;63355.56;5045028;28;20048;-77
2024/01/14 04:53:11;;;;;;;21.23;8.77;;;;;;;-141.50;100.00;63355.56;5057010;28;20056;-78
2024/01/14 04:55:38;;;;;;;16.83;8.30;;;;;;;-141.50;100.00;63355.56;5026212;28;20121;-77
2024/01/14 04:58:05;;;;;;;18.50;8.38;;;;;;;-141.50;100.00;63355.56;5046596;28;20041;-78
2024/01/14 05:00:35;;;;;;;16.33;7.13;;;;;;;-141.50;100.00;63355.56;5059469;28;20109;-77
2024/01/14 05:03:03;;;;;;;20.27;8.07;;;;;;;-141.50;100.00;63355.56;5050973;28;20045;-79
2024/01/14 05:05:30;;;;;;;15.35;7.15;;;;;;;-141.50;100.00;63355.56;5050177;28;20068;-78
2024/01/14 05:07:58;;;;;;;14.90;6.60;;;;;;;-141.50;100.00;63355.56;5043824;28;20125;-78
2024/01/14 05:10:25;;;;;;;18.45;7.55;;;;;;;-141.50;100.00;63355.56;5028293;28;20081;-78
2024/01/14 05:12:56;;;;;;;14.75;6.97;;;;;;;-141.50;100.00;63355.56;5047240;28;20056;-77
2024/01/14 05:15:23;;;;;;;15.07;6.95;;;;;;;-141.50;100.00;63355.56;5036545;28;20029;-77
2024/01/14 05:17:50;;;;;;;17.85;7.07;;;;;;;-141.50;100.00;63355.56;5031964;28;20037;-76
2024/01/14 05:20:17;;;;;;;17.00;6.97;;;;;;;-141.50;100.00;63355.56;5025348;28;20535;-78
2024/01/14 05:22:44;;;;;;;16.83;7.05;;;;;;;-141.50;100.00;63355.56;5030908;28;20045;-79
2024/01/14 05:25:11;;;;;;;18.70;7.28;;;;;;;-141.50;100.00;63355.56;5032473;28;20045;-78
2024/01/14 05:27:41;;;;;;;16.02;7.18;;;;;;;-141.50;100.00;63355.56;5012602;28;20041;-78
2024/01/14 05:30:08;;;;;;;18.13;6.95;;;;;;;-141.50;100.00;63355.56;5025335;28;20164;-78
2024/01/14 05:32:37;;;;;;;17.50;7.40;;;;;;;-141.50;100.00;63355.56;5033718;28;20041;-78
2024/01/14 05:35:05;;;;;;;17.90;6.40;;;;;;;-141.50;100.00;63355.56;5010923;28;20045;-77
2024/01/14 05:37:32;;;;;;;15.52;6.93;;;;;;;-141.50;100.00;63355.56;5022905;28;20044;-77
2024/01/14 05:39:59;;;;;;;14.55;6.97;;;;;;;-141.50;100.00;63355.56;5047729;28;20233;-77
2024/01/14 05:42:26;;;;;;;16.75;7.05;;;;;;;-141.50;100.00;63355.56;5056005;28;20048;-77
2024/01/14 05:44:53;;;;;;;17.25;7.18;;;;;;;-141.50;100.00;63355.56;5054924;28;20053;-77
2024/01/14 05:47:20;;;;;;;21.52;8.05;;;;;;;-141.50;100.00;63355.56;5044110;28;20753;-78
2024/01/14 05:49:50;;;;;;;17.85;7.10;;;;;;;-141.50;100.00;63355.56;5045486;28;20037;-78
2024/01/14 05:52:18;;;;;;;15.38;7.03;;;;;;;-141.50;100.00;63355.56;5044560;28;20087;-79
2024/01/14 05:54:45;;;;;;;20.55;7.07;;;;;;;-141.50;100.00;63355.56;5026478;28;20057;-78
2024/01/14 05:57:14;;;;;;;16.50;6.60;;;;;;;-141.50;100.00;63355.56;5031971;28;20042;-78
2024/01/14 05:59:42;;;;;;;16.83;7.00;;;;;;;-141.50;100.00;63355.56;5052380;28;20463;-78
2024/01/14 06:02:11;;;;;;;17.77;6.80;;;;;;;-141.50;100.00;63355.56;5040825;28;21746;-78
2024/01/14 06:04:39;;;;;;;14.18;6.22;;;;;;;-141.50;100.00;63355.56;5021029;28;20223;-78
2024/01/14 06:07:05;;;;;;;15.65;6.47;;;;;;;-141.50;100.00;63355.56;5026388;28;20093;-78
2024/01/14 06:09:36;;;;;;;16.15;7.72;;;;;;;-141.50;100.00;63355.56;5016072;28;20523;-79
2024/01/14 06:12:03;;;;;;;18.48;7.10;;;;;;;-141.50;100.00;63355.56;5031658;28;20061;-77
2024/01/14 06:14:30;;;;;;;16.05;6.90;;;;;;;-141.50;100.00;63355.56;5022409;28;20427;-78
2024/01/14 06:16:58;;;;;;;16.50;5.95;;;;;;;-141.50;100.00;63355.56;5005872;28;20077;-78
2024/01/14 06:19:27;;;;;;;19.30;7.18;;;;;;;-141.50;100.00;63355.56;5059566;28;20128;-77
2024/01/14 06:21:54;;;;;;;17.52;7.00;;;;;;;-141.50;100.00;63355.56;5029014;28;20423;-78
2024/01/14 06:24:22;;;;;;;14.63;6.90;;;;;;;-141.50;100.00;63355.56;5052596;28;20052;-79
2024/01/14 06:26:51;;;;;;;15.25;6.82;;;;;;;-141.50;100.00;63355.56;5028500;28;20049;-77
2024/01/14 06:29:18;;;;;;;17.35;7.20;;;;;;;-141.50;100.00;63355.56;5021946;28;20057;-78
2024/01/14 06:31:50;;;;;;;15.23;6.38;;;;;;;-141.50;100.00;63355.56;5031268;28;20052;-79
2024/01/14 06:34:17;;;;;;;16.05;6.43;;;;;;;-141.50;100.00;63355.56;5033112;28;20099;-77
2024/01/14 06:36:44;;;;;;;15.95;6.57;;;;;;;-141.50;100.00;63355.56;5022557;28;20103;-77
2024/01/14 06:39:13;;;;;;;15.43;6.53;;;;;;;-141.50;100.00;63355.56;5026542;28;20061;-78
2024/01/14 06:41:40;;;;;;;20.17;8.50;;;;;;;-141.50;100.00;63355.56;5006481;28;20052;-76
2024/01/14 06:44:10;;;;;;;14.63;6.25;;;;;;;-141.50;100.00;63355.56;5037293;28;20050;-77
2024/01/14 06:46:44;;;;;;;18.23;6.80;;;;;;;-141.50;100.00;63355.56;5012077;28;20504;-77
2024/01/14 06:49:11;;;;;;;17.48;6.80;;;;;;;-141.50;100.00;63355.56;5034233;28;20049;-76
2024/01/14 06:51:45;;;;;;;16.13;6.75;;;;;;;-141.50;100.00;63355.56;5024421;28;20532;-77
2024/01/14 06:54:12;;;;;;;17.27;7.35;;;;;;;-141.50;100.00;63355.56;5039682;28;20049;-78
2024/01/14 06:56:43;;;;;;;17.63;6.28;;;;;;;-141.50;100.00;63355.56;5030270;28;20045;-77
2024/01/14 06:59:18;;;;;;;16.13;6.78;;;;;;;-141.50;100.00;63355.56;5049070;28;20623;-77
2024/01/14 07:01:45;;;;;;;14.65;5.82;;;;;;;-141.50;100.00;63355.56;5072166;28;20064;-77
2024/01/14 07:04:13;;;;;;;15.50;7.03;;;;;;;-141.50;100.00;63355.56;5021409;28;20514;-76
2024/01/14 07:06:42;;;;;;;16.77;6.97;;;;;;;-141.50;100.00;63355.56;5024756;28;20045;-76
2024/01/14 07:09:13;;;;;;;16.77;6.72;;;;;;;-141.50;100.00;63355.56;5047219;28;20116;-77
2024/01/14 07:11:41;;;;;;;15.50;7.18;;;;;;;-141.50;100.00;63355.56;5045684;28;20045;-77
2024/01/14 07:14:08;;;;;;;15.35;6.45;;;;;;;-141.50;100.00;63355.56;5038727;28;20105;-77
2024/01/14 07:16:36;;;;;;;16.95;6.57;;;;;;;-141.50;100.00;63355.56;5036457;28;20128;-77
2024/01/14 07:19:05;;;;;;;17.40;7.45;;;;;;;-141.50;100.00;63355.56;5037019;28;20068;-77
2024/01/14 07:21:33;;;;;;;17.13;7.25;;;;;;;-141.50;100.00;63355.56;5053242;28;20098;-76
2024/01/14 07:24:00;;;;;;;17.52;7.10;;;;;;;-141.50;100.00;63355.56;5036855;28;20049;-77
2024/01/14 07:26:27;;;;;;;22.90;7.32;;;;;;;-141.50;100.00;63355.56;5052740;28;20041;-78
2024/01/14 07:28:54;;;;;;;21.67;7.45;;;;;;;-141.50;100.00;63355.56;5043328;28;20045;-77
2024/01/14 07:31:32;;;;;;;17.75;6.97;;;;;;;-141.50;100.00;63355.56;5046879;28;20140;-77
2024/01/14 07:34:00;;;;;;;18.40;7.03;;;;;;;-141.50;100.00;63355.56;5032869;28;20056;-78
2024/01/14 07:36:27;;;;;;;15.43;6.43;;;;;;;-141.50;100.00;63355.56;5039558;28;20151;-77
2024/01/14 07:38:58;;;;;;;19.02;7.65;;;;;;;-141.50;100.00;63355.56;5025112;28;20060;-77
2024/01/14 07:41:25;;;;;;;16.65;7.60;;;;;;;-141.50;100.00;63355.56;5045920;28;20048;-77
2024/01/14 07:43:52;;;;;;;18.08;7.35;;;;;;;-141.50;100.00;63355.56;5036140;28;20057;-77
2024/01/14 07:46:21;;;;;;;18.27;7.78;;;;;;;-141.50;100.00;63355.56;5040188;28;20042;-78
2024/01/14 07:48:53;;;;;;;19.27;8.00;;;;;;;-141.50;100.00;63355.56;5052463;28;20020;-75
2024/01/14 07:51:20;;;;;;;15.88;6.75;;;;;;;-141.50;100.00;63355.56;5051516;28;20044;-77
2024/01/14 07:53:50;;;;;;;19.48;7.30;;;;;;;-141.50;100.00;63355.56;5050590;28;20415;-76
2024/01/14 07:56:19;;;;;;;16.20;7.72;;;;;;;-141.50;100.00;63355.56;5029136;28;20052;-77
2024/01/14 07:58:46;;;;;;;16.83;7.13;;;;;;;-141.50;100.00;63355.56;5023071;28;20045;-77
2024/01/14 08:01:14;;;;;;;17.52;7.18;;;;;;;-141.50;100.00;63355.56;5011632;28;20041;-77
2024/01/14 08:03:42;;;;;;;14.07;6.45;;;;;;;-141.50;100.00;63355.56;5029529;28;20041;-77
2024/01/14 08:06:10;;;;;;;15.27;6.60;;;;;;;-141.50;100.00;63355.56;5045369;28;20045;-76
2024/01/14 08:08:37;;;;;;;16.52;6.57;;;;;;;-141.50;100.00;63355.56;5042874;28;20546;-77
2024/01/14 08:11:04;;;;;;;17.08;7.03;;;;;;;-141.50;100.00;63355.56;5038776;28;20068;-78
2024/01/14 08:13:34;;;;;;;16.77;6.18;;;;;;;-141.50;100.00;63355.56;5040377;28;20055;-80
2024/01/14 08:16:01;;;;;;;16.58;6.65;;;;;;;-141.50;100.00;63355.56;5023591;28;20060;-77
2024/01/14 08:18:29;;;;;;;17.42;7.65;;;;;;;-141.50;100.00;63355.56;5028448;28;20535;-77
2024/01/14 08:21:00;;;;;;;16.13;6.95;;;;;;;-141.50;100.00;63355.56;5034950;28;20053;-77
2024/01/14 08:23:32;;;;;;;14.32;6.43;;;;;;;-141.50;100.00;63355.56;5041409;28;20067;-78
2024/01/14 08:26:01;;;;;;;13.13;6.15;;;;;;;-141.50;100.00;63355.56;5028341;28;20052;-77
2024/01/14 08:28:32;;;;;;;17.88;7.45;;;;;;;-141.50;100.00;63355.56;5022653;28;20415;-76
2024/01/14 08:30:59;;;;;;;17.50;6.70;;;;;;;-141.50;100.00;63355.56;5035233;28;20068;-76
2024/01/14 08:33:27;;;;;;;21.27;8.60;;;;;;;-141.50;100.00;63355.56;5043228;28;20099;-77
2024/01/14 08:35:55;;;;;;;19.27;8.32;;;;;;;-141.50;100.00;63355.56;5018797;28;20053;-76
2024/01/14 08:38:24;;;;;;;19.60;7.38;;;;;;;-141.50;100.00;63355.56;5058009;28;20079;-75
2024/01/14 08:40:53;;;;;;;22.38;8.77;;;;;;;-141.50;100.00;63355.56;5015800;28;20128;-76
2024/01/14 08:43:22;;;;;;;20.52;8.60;;;;;;;-141.50;100.00;63355.56;5035214;28;20137;-76
2024/01/14 08:45:49;;;;;;;19.52;8.20;;;;;;;-141.50;100.00;63355.56;5030009;28;20044;-76
2024/01/14 08:48:16;;;;;;;26.08;9.05;;;;;;;-141.50;100.00;63355.56;5016918;28;20095;-75
2024/01/14 08:50:45;;;;;;;21.42;8.45;;;;;;;-141.50;100.00;63355.56;5017032;28;20049;-75
2024/01/14 08:53:12;;;;;;;24.40;9.15;;;;;;;-141.50;100.00;63355.56;5026173;28;20069;-75
2024/01/14 08:55:42;;;;;;;21.95;8.27;;;;;;;-141.50;100.00;63355.56;5027171;28;20041;-75
2024/01/14 08:58:09;;;;;;;23.02;8.07;;;;;;;-141.50;100.00;63355.56;5033173;28;20111;-76
2024/01/14 09:00:40;;;;;;;20.35;8.25;;;;;;;-141.50;100.00;63355.56;5026186;28;20041;-75
2024/01/14 09:03:08;;;;;;;19.40;7.78;;;;;;;-141.50;100.00;63355.56;5037360;28;20055;-75
2024/01/14 09:05:35;;;;;;;21.00;7.97;;;;;;;-141.50;100.00;63355.56;5018689;28;20154;-76
2024/01/14 09:08:04;;;;;;;20.27;9.10;;;;;;;-141.50;100.00;63355.56;5038691;28;20048;-76
2024/01/14 09:10:34;;;;;;;18.88;7.80;;;;;;;-141.50;100.00;63355.56;5014013;28;20041;-76
2024/01/14 09:13:04;;;;;;;21.23;9.20;;;;;;;-141.50;100.00;63355.56;5028271;28;20056;-76
2024/01/14 09:15:33;;;;;;;18.10;8.27;;;;;;;-141.50;100.00;63355.56;5027677;28;20049;-75
2024/01/14 09:18:00;;;;;;;22.73;8.10;;;;;;;-141.50;100.00;63355.56;5037834;28;20049;-74
2024/01/14 09:20:28;;;;;;;23.60;9.07;;;;;;;-141.50;100.00;63355.56;5029938;28;20048;-74
2024/01/14 09:22:55;;;;;;;19.50;7.60;;;;;;;-141.50;100.00;63355.56;5006387;28;20392;-76
2024/01/14 09:25:22;;;;;;;22.90;9.38;;;;;;;-141.50;100.00;63355.56;5034676;28;20591;-75
2024/01/14 09:27:52;;;;;;;20.80;8.23;;;;;;;-141.50;100.00;63355.56;5024655;28;20649;-74
2024/01/14 09:30:19;;;;;;;18.20;7.90;;;;;;;-141.50;100.00;63355.56;5032146;28;20049;-75
2024/01/14 09:32:46;;;;;;;21.60;7.95;;;;;;;-141.50;100.00;63355.56;5036244;28;20052;-76
2024/01/14 09:35:17;;;;;;;31.73;8.80;;;;;;;-141.50;100.00;63355.56;5035251;28;20406;-75
2024/01/14 09:37:44;;;;;;;23.77;9.10;;;;;;;-141.50;100.00;63355.56;5017809;28;20045;-76
2024/01/14 09:40:19;;;;;;;22.67;8.57;;;;;;;-141.50;100.00;63355.56;5020592;28;20088;-74
2024/01/14 09:42:50;;;;;;;21.17;8.52;;;;;;;-141.50;100.00;63355.56;5012065;28;20079;-75
2024/01/14 09:45:17;;;;;;;18.70;7.90;;;;;;;-141.50;100.00;63355.56;5031552;28;20057;-76
2024/01/14 09:47:57;;;;;;;21.67;8.38;;;;;;;-141.50;100.00;63355.56;5030523;28;20651;-76
2024/01/14 09:50:26;;;;;;;22.42;8.43;;;;;;;-141.50;100.00;63355.56;5034391;28;20672;-77
2024/01/14 09:52:55;;;;;;;23.35;8.25;;;;;;;-141.50;100.00;63355.56;5037823;28;20053;-75
2024/01/14 09:55:24;;;;;;;16.55;7.20;;;;;;;-141.50;100.00;63355.56;5027172;28;20485;-76
2024/01/14 09:57:52;;;;;;;23.20;8.48;;;;;;;-141.50;100.00;63355.56;5053275;28;20111;-75
2024/01/14 10:00:22;;;;;;;19.85;7.40;;;;;;;-141.50;100.00;63355.56;5031198;28;20043;-75
2024/01/14 10:02:49;;;;;;;22.25;7.82;;;;;;;-141.50;100.00;63355.56;5007588;28;20061;-76
2024/01/14 10:05:17;;;;;;;22.25;7.93;;;;;;;-141.50;100.00;63355.56;5016469;28;20423;-76
2024/01/14 10:07:46;;;;;;;22.88;8.85;;;;;;;-141.50;100.00;63355.56;5032246;28;20045;-76
2024/01/14 10:10:13;;;;;;;23.75;7.90;;;;;;;-141.50;100.00;63355.56;5030639;28;20057;-76
2024/01/14 10:12:41;;;;;;;22.75;7.53;;;;;;;-141.50;100.00;63355.56;5039478;28;20044;-77
2024/01/14 10:15:08;;;;;;;16.45;7.50;;;;;;;-141.50;100.00;63355.56;5027532;28;20045;-77
2024/01/14 10:17:37;;;;;;;21.15;9.02;;;;;;;-141.50;100.00;63355.56;5038216;28;20102;-77
2024/01/14 10:20:04;;;;;;;20.30;8.38;;;;;;;-141.50;100.00;63355.56;5013406;28;20049;-75
2024/01/14 10:22:32;;;;;;;18.38;7.57;;;;;;;-141.50;100.00;63355.56;5040306;28;20063;-77
2024/01/14 10:25:01;;;;;;;18.77;7.13;;;;;;;-141.50;100.00;63355.56;5033332;28;20072;-76
2024/01/14 10:27:28;;;;;;;17.27;7.25;;;;;;;-141.50;100.00;63355.56;5041666;28;20056;-76
2024/01/14 10:30:12;;;;;;;19.33;7.50;;;;;;;-141.50;100.00;63355.56;5005848;28;20057;-75
2024/01/14 10:32:43;;;;;;;17.65;6.93;;;;;;;-141.50;100.00;63355.56;5019136;28;20140;-77
2024/01/14 10:35:30;;;;;;;18.73;7.57;;;;;;;-141.50;100.00;63355.56;5019823;28;20057;-77
2024/01/14 10:38:00;;;;;;;16.77;7.55;;;;;;;-141.50;100.00;63355.56;5015174;28;20073;-78
2024/01/14 10:40:27;;;;;;;24.50;7.97;;;;;;;-141.50;100.00;63355.56;5015524;28;20041;-77
2024/01/14 10:42:54;;;;;;;19.15;7.10;;;;;;;-141.50;100.00;63355.56;5040216;28;20072;-77
2024/01/14 10:45:22;;;;;;;20.75;8.23;;;;;;;-141.50;100.00;63355.56;5007023;28;20056;-77
2024/01/14 10:47:57;;;;;;;20.00;8.30;;;;;;;-141.50;100.00;63355.56;5023223;28;20049;-76
2024/01/14 10:50:26;;;;;;;20.42;8.60;;;;;;;-141.50;100.00;63355.56;5037426;28;21055;-75
2024/01/14 10:53:18;;;;;;;20.98;8.07;;;;;;;-141.50;100.00;63355.56;5042566;28;20048;-77
2024/01/14 10:55:49;;;;;;;23.75;8.75;;;;;;;-141.50;100.00;63355.56;5031489;28;20060;-75
2024/01/14 10:58:26;;;;;;;20.33;7.72;;;;;;;-141.50;100.00;63355.56;5035528;28;20145;-76
2024/01/14 11:01:01;;;;;;;23.42;8.52;;;;;;;-141.50;100.00;63355.56;5036224;28;20049;-77
2024/01/14 11:03:29;;;;;;;23.60;8.15;;;;;;;-141.50;100.00;63355.56;5008799;28;20046;-75
2024/01/14 11:05:58;;;;;;;21.00;8.15;;;;;;;-141.50;100.00;63355.56;5021067;28;20053;-76
2024/01/14 11:08:26;;;;;;;16.90;7.65;;;;;;;-141.50;100.00;63355.56;5018963;28;20045;-76